createdAt,value
2022-08-20T00:00:19.158Z,18.50
2022-08-20T00:02:48.320Z,18.40
2022-08-20T00:05:15.472Z,18.30
2022-08-20T00:07:42.157Z,18.20
2022-08-20T00:10:09.281Z,18.10
2022-08-20T00:12:36.488Z,18.00
2022-08-20T00:15:04.107Z,18.00
2022-08-20T00:17:37.421Z,18.00
2022-08-20T00:20:09.331Z,18.10
2022-08-20T00:22:36.136Z,18.10
2022-08-20T00:25:04.383Z,18.20
2022-08-20T00:27:31.069Z,18.20
2022-08-20T00:29:57.716Z,18.20
2022-08-20T00:32:24.339Z,18.30
2022-08-20T00:34:51.040Z,18.30
2022-08-20T00:37:17.744Z,18.30
2022-08-20T00:39:44.804Z,18.30
2022-08-20T00:42:11.704Z,18.30
2022-08-20T00:44:40.804Z,18.30
2022-08-20T00:47:09.187Z,18.40
2022-08-20T00:49:35.823Z,18.40
2022-08-20T00:52:14.532Z,18.40
2022-08-20T00:54:58.583Z,18.40
2022-08-20T00:57:43.499Z,18.40
2022-08-20T01:00:22.310Z,18.40
2022-08-20T01:02:50.521Z,18.40
2022-08-20T01:05:17.380Z,18.40
2022-08-20T01:07:45.024Z,18.50
2022-08-20T01:10:14.439Z,18.50
2022-08-20T01:12:46.952Z,18.60
2022-08-20T01:15:17.747Z,18.60
2022-08-20T01:17:47.146Z,18.60
2022-08-20T01:20:23.556Z,18.60
2022-08-20T01:23:27.244Z,18.60
2022-08-20T01:26:13.682Z,18.60
2022-08-20T01:29:19.563Z,18.50
2022-08-20T01:31:46.235Z,18.50
2022-08-20T01:34:15.239Z,18.50
2022-08-20T01:36:48.005Z,18.40
2022-08-20T01:39:18.095Z,18.40
2022-08-20T01:42:07.562Z,18.30
2022-08-20T01:44:35.271Z,18.20
2022-08-20T01:47:09.091Z,18.20
2022-08-20T01:49:35.907Z,18.20
2022-08-20T01:52:05.837Z,18.20
2022-08-20T01:54:32.614Z,18.20
2022-08-20T01:57:14.116Z,18.20
2022-08-20T01:59:41.672Z,18.20
2022-08-20T02:02:08.730Z,18.20
2022-08-20T02:04:35.372Z,18.20
2022-08-20T02:07:04.162Z,18.20
2022-08-20T02:09:33.401Z,18.20
2022-08-20T02:12:00.149Z,18.20
2022-08-20T02:14:27.449Z,18.20
2022-08-20T02:16:55.115Z,18.20
2022-08-20T02:19:48.674Z,18.10
2022-08-20T02:22:27.136Z,18.20
2022-08-20T02:24:54.308Z,18.20
2022-08-20T02:27:23.799Z,18.20
2022-08-20T02:29:51.800Z,18.20
2022-08-20T02:32:24.200Z,18.20
2022-08-20T02:35:03.148Z,18.20
2022-08-20T02:37:29.824Z,18.30
2022-08-20T02:39:56.555Z,18.30
2022-08-20T02:42:23.251Z,18.50
2022-08-20T02:44:49.948Z,18.50
2022-08-20T02:47:17.166Z,18.60
2022-08-20T02:49:43.978Z,18.70
2022-08-20T02:52:10.980Z,18.70
2022-08-20T02:54:37.682Z,18.70
2022-08-20T02:57:04.630Z,18.80
2022-08-20T02:59:31.360Z,18.80
2022-08-20T03:02:00.740Z,18.70
2022-08-20T03:04:29.228Z,18.80
2022-08-20T03:06:56.270Z,18.80
2022-08-20T03:09:22.959Z,18.80
2022-08-20T03:11:49.645Z,18.80
2022-08-20T03:14:16.305Z,18.90
2022-08-20T03:16:43.174Z,18.90
2022-08-20T03:19:09.826Z,18.90
2022-08-20T03:21:36.732Z,18.90
2022-08-20T03:24:03.627Z,18.90
2022-08-20T03:26:30.318Z,18.80
2022-08-20T03:28:56.984Z,18.90
2022-08-20T03:31:23.705Z,18.80
2022-08-20T03:33:53.404Z,18.80
2022-08-20T03:36:27.712Z,18.80
2022-08-20T03:38:56.799Z,18.70
2022-08-20T03:41:23.858Z,18.70
2022-08-20T03:43:50.551Z,18.80
2022-08-20T03:46:23.239Z,18.80
2022-08-20T03:48:58.734Z,18.70
2022-08-20T03:51:28.093Z,18.80
2022-08-20T03:53:54.840Z,18.80
2022-08-20T03:56:21.483Z,18.70
2022-08-20T03:58:48.131Z,18.80
2022-08-20T04:01:45.548Z,18.80
2022-08-20T04:04:01.547Z,18.80
2022-08-20T04:06:29.526Z,18.90
2022-08-20T04:08:56.664Z,18.90
2022-08-20T04:11:24.183Z,18.80
2022-08-20T04:13:50.920Z,18.90
2022-08-20T04:16:18.040Z,18.80
2022-08-20T04:19:01.803Z,18.70
2022-08-20T04:21:32.502Z,18.70
2022-08-20T04:24:00.904Z,18.70
2022-08-20T04:26:30.795Z,18.80
2022-08-20T04:28:57.553Z,18.80
2022-08-20T04:31:33.290Z,18.80
2022-08-20T04:34:01.689Z,18.90
2022-08-20T04:36:28.490Z,18.80
2022-08-20T04:38:55.164Z,18.90
2022-08-20T04:41:23.584Z,18.90
2022-08-20T04:43:54.826Z,18.90
2022-08-20T04:46:23.526Z,18.90
2022-08-20T04:48:50.642Z,18.90
2022-08-20T04:51:18.254Z,18.90
2022-08-20T04:53:51.709Z,18.90
2022-08-20T04:56:19.773Z,18.90
2022-08-20T04:58:48.680Z,18.90
2022-08-20T05:01:15.438Z,19.00
2022-08-20T05:03:42.983Z,19.10
2022-08-20T05:06:10.351Z,19.20
2022-08-20T05:08:38.514Z,19.20
2022-08-20T05:11:27.665Z,19.20
2022-08-20T05:13:52.807Z,19.30
2022-08-20T05:16:20.158Z,19.30
2022-08-20T05:18:48.741Z,19.30
2022-08-20T05:21:19.771Z,19.40
2022-08-20T05:23:46.422Z,19.40
2022-08-20T05:26:13.222Z,19.50
2022-08-20T05:28:53.879Z,19.50
2022-08-20T05:31:32.157Z,19.50
2022-08-20T05:34:03.788Z,19.50
2022-08-20T05:36:30.442Z,19.60
2022-08-20T05:38:57.164Z,19.70
2022-08-20T05:41:29.228Z,19.80
2022-08-20T05:44:01.274Z,20.00
2022-08-20T05:46:29.413Z,20.10
2022-08-20T05:48:56.221Z,20.20
2022-08-20T05:51:27.079Z,20.30
2022-08-20T05:53:53.721Z,20.40
2022-08-20T05:56:20.370Z,20.40
2022-08-20T05:58:53.428Z,20.60
2022-08-20T06:01:20.224Z,20.60
2022-08-20T06:04:05.505Z,20.50
2022-08-20T06:06:46.194Z,20.50
2022-08-20T06:09:15.826Z,20.50
2022-08-20T06:11:42.490Z,20.40
2022-08-20T06:14:09.136Z,20.50
2022-08-20T06:16:37.215Z,20.40
2022-08-20T06:19:04.689Z,20.40
2022-08-20T06:21:31.369Z,20.30
2022-08-20T06:24:01.339Z,20.40
2022-08-20T06:26:30.350Z,20.40
2022-08-20T06:28:59.037Z,20.40
2022-08-20T06:31:27.255Z,20.40
2022-08-20T06:33:54.207Z,20.50
2022-08-20T06:36:20.900Z,20.60
2022-08-20T06:38:47.588Z,20.70
2022-08-20T06:41:14.230Z,20.80
2022-08-20T06:43:40.947Z,21.00
2022-08-20T06:46:08.135Z,21.10
2022-08-20T06:48:34.866Z,21.30
2022-08-20T06:51:01.688Z,21.40
2022-08-20T06:53:29.014Z,21.70
2022-08-20T06:55:56.241Z,22.20
2022-08-20T06:58:37.302Z,22.50
2022-08-20T07:01:09.269Z,22.40
2022-08-20T07:03:38.315Z,22.50
2022-08-20T07:06:05.440Z,22.40
2022-08-20T07:08:32.259Z,22.40
2022-08-20T07:10:59.560Z,22.40
2022-08-20T07:13:26.285Z,22.60
2022-08-20T07:15:54.210Z,23.40
2022-08-20T07:18:28.198Z,24.00
2022-08-20T07:20:56.944Z,24.50
2022-08-20T07:23:24.364Z,25.20
2022-08-20T07:25:51.056Z,25.40
2022-08-20T07:28:19.965Z,25.20
2022-08-20T07:31:13.439Z,24.90
2022-08-20T07:33:41.277Z,25.50
2022-08-20T07:36:08.329Z,25.90
2022-08-20T07:38:35.291Z,25.90
2022-08-20T07:41:04.512Z,26.10
2022-08-20T07:43:31.716Z,26.10
2022-08-20T07:46:01.313Z,26.20
2022-08-20T07:48:31.954Z,26.70
2022-08-20T07:51:00.470Z,27.00
2022-08-20T07:53:27.219Z,27.70
2022-08-20T07:55:59.162Z,27.20
2022-08-20T07:58:33.480Z,27.40
2022-08-20T08:01:00.499Z,27.70
2022-08-20T08:03:37.671Z,27.90
2022-08-20T08:06:17.007Z,28.10
2022-08-20T08:08:55.367Z,28.90
2022-08-20T08:11:22.053Z,29.20
2022-08-20T08:13:48.711Z,28.60
2022-08-20T08:16:15.434Z,27.90
2022-08-20T08:18:44.210Z,27.40
2022-08-20T08:21:12.955Z,27.00
2022-08-20T08:23:44.532Z,26.80
2022-08-20T08:26:16.275Z,26.60
2022-08-20T08:28:46.093Z,26.40
2022-08-20T08:31:12.754Z,26.40
2022-08-20T08:33:40.821Z,26.30
2022-08-20T08:36:11.742Z,25.70
2022-08-20T08:38:40.430Z,25.60
2022-08-20T08:41:16.047Z,25.40
2022-08-20T08:43:42.718Z,25.30
2022-08-20T08:46:10.538Z,25.10
2022-08-20T08:48:45.432Z,25.00
2022-08-20T08:51:13.099Z,25.00
2022-08-20T08:53:46.262Z,24.70
2022-08-20T08:56:14.457Z,24.70
2022-08-20T08:58:41.890Z,24.50
2022-08-20T09:01:53.941Z,24.30
2022-08-20T09:04:01.780Z,24.50
2022-08-20T09:06:28.440Z,24.00
2022-08-20T09:09:00.986Z,24.30
2022-08-20T09:11:27.958Z,24.50
2022-08-20T09:13:54.775Z,24.30
2022-08-20T09:16:22.968Z,24.50
2022-08-20T09:18:50.228Z,25.80
2022-08-20T09:33:34.155Z,27.80
2022-08-20T09:36:00.889Z,26.00
2022-08-20T09:38:27.631Z,26.00
2022-08-20T09:40:54.303Z,26.70
2022-08-20T09:43:21.013Z,27.20
2022-08-20T09:45:47.630Z,27.00
2022-08-20T09:48:14.270Z,26.50
2022-08-20T09:50:42.791Z,26.30
2022-08-20T09:53:09.439Z,26.20
2022-08-20T10:40:16.619Z,25.20
2022-08-20T10:42:43.774Z,28.50
2022-08-20T10:45:14.623Z,29.20
2022-08-20T10:47:41.443Z,29.80
2022-08-20T10:50:10.247Z,29.90
2022-08-20T10:52:36.904Z,30.30
2022-08-20T10:55:04.768Z,29.70
2022-08-20T10:57:31.787Z,29.50
2022-08-20T11:02:25.955Z,30.60
2022-08-20T11:07:53.645Z,29.50
2022-08-20T11:10:15.237Z,27.70
2022-08-20T11:12:42.221Z,27.40
2022-08-20T11:15:12.778Z,27.40
2022-08-20T11:17:40.820Z,27.40
2022-08-20T11:20:08.304Z,27.50
2022-08-20T11:22:35.289Z,27.50
2022-08-20T11:25:02.286Z,27.60
2022-08-20T11:27:33.686Z,27.70
2022-08-20T11:30:00.414Z,27.90
2022-08-20T11:32:27.227Z,28.00
2022-08-20T11:34:53.852Z,28.10
2022-08-20T11:37:21.597Z,29.20
2022-08-20T11:39:48.499Z,29.50
2022-08-20T11:42:15.188Z,29.60
2022-08-20T11:44:41.866Z,29.90
2022-08-20T11:47:08.650Z,29.90
2022-08-20T11:49:36.420Z,29.60
2022-08-20T11:52:04.362Z,29.60
2022-08-20T11:54:32.500Z,29.90
2022-08-20T11:56:59.595Z,30.70
2022-08-20T11:59:26.678Z,31.10
2022-08-20T12:02:02.805Z,31.20
2022-08-20T12:04:33.500Z,31.00
2022-08-20T12:07:08.887Z,30.60
2022-08-20T12:09:35.551Z,30.90
2022-08-20T12:12:07.202Z,30.70
2022-08-20T12:14:34.011Z,30.50
2022-08-20T12:17:23.506Z,30.30
2022-08-20T12:19:51.306Z,30.50
2022-08-20T12:22:24.456Z,30.90
2022-08-20T12:32:21.974Z,31.50
2022-08-20T12:34:48.763Z,31.70
2022-08-20T12:37:17.149Z,32.30
2022-08-20T12:42:12.127Z,32.70
2022-08-20T12:44:38.919Z,33.40
2022-08-20T12:47:10.267Z,33.40
2022-08-20T14:23:05.665Z,33.40
2022-08-20T14:25:32.430Z,33.30
2022-08-20T14:27:59.329Z,33.30
2022-08-20T14:30:28.347Z,33.20
2022-08-20T14:32:55.081Z,33.40
2022-08-20T14:35:22.515Z,33.40
2022-08-20T14:37:53.530Z,32.70
2022-08-20T14:40:22.545Z,32.80
2022-08-20T14:42:51.648Z,33.00
2022-08-20T14:45:21.962Z,33.10
2022-08-20T14:47:54.381Z,33.60
2022-08-20T14:50:33.225Z,33.60
2022-08-20T14:53:00.100Z,33.60
2022-08-20T14:55:37.164Z,34.30
2022-08-20T14:58:08.495Z,34.40
2022-08-20T15:00:35.252Z,33.60
2022-08-20T15:03:02.089Z,33.30
2022-08-20T15:05:29.815Z,33.00
2022-08-20T17:44:39.882Z,32.70
2022-08-20T17:47:10.702Z,24.70
2022-08-20T17:50:02.154Z,24.30
2022-08-20T17:52:40.010Z,24.10
2022-08-20T17:55:07.295Z,24.00
2022-08-20T17:57:37.854Z,23.90
2022-08-20T18:00:09.904Z,23.80
2022-08-20T18:02:37.021Z,23.70
2022-08-20T18:05:16.730Z,23.70
2022-08-20T18:26:05.115Z,23.50
2022-08-20T18:28:38.202Z,22.70
2022-08-20T18:31:07.657Z,22.60
2022-08-20T18:33:35.763Z,22.50
2022-08-20T18:36:10.027Z,22.40
2022-08-20T18:38:38.450Z,22.20
2022-08-20T18:41:15.711Z,22.10
2022-08-20T18:43:42.639Z,22.00
2022-08-20T18:46:11.240Z,21.90
2022-08-20T18:48:37.996Z,21.80
2022-08-20T18:51:08.086Z,21.70
2022-08-20T18:53:34.806Z,21.60
2022-08-20T18:56:08.808Z,21.50
2022-08-20T18:58:53.965Z,21.40
2022-08-20T19:01:20.652Z,21.40
2022-08-20T19:03:54.924Z,21.20
2022-08-20T19:06:25.232Z,21.20
2022-08-20T19:08:53.830Z,21.00
2022-08-20T19:11:45.083Z,20.90
2022-08-20T19:14:49.638Z,20.80
2022-08-20T19:17:35.122Z,20.70
2022-08-20T19:20:04.029Z,20.60
2022-08-20T19:22:30.872Z,20.50
2022-08-20T19:24:58.610Z,20.40
2022-08-20T19:27:25.983Z,20.30
2022-08-20T19:29:56.677Z,20.30
2022-08-20T19:32:32.997Z,20.20
2022-08-20T19:35:01.822Z,20.20
2022-08-20T19:37:38.512Z,20.30
2022-08-20T19:40:24.865Z,20.40
2022-08-20T19:42:55.112Z,20.50
2022-08-20T19:45:35.986Z,20.40
2022-08-20T19:48:27.200Z,20.40
2022-08-20T19:51:09.006Z,20.40
2022-08-20T19:53:37.069Z,20.40
2022-08-20T19:56:09.779Z,20.40
2022-08-20T19:58:36.631Z,20.30
2022-08-20T20:01:04.487Z,20.20
2022-08-20T20:03:33.286Z,20.20
2022-08-20T20:06:16.144Z,20.20
2022-08-20T20:09:04.909Z,20.10
2022-08-20T20:11:36.859Z,20.00
2022-08-20T20:14:06.328Z,19.80
2022-08-20T20:16:34.604Z,19.80
2022-08-20T20:19:24.746Z,19.70
2022-08-20T20:21:52.782Z,19.60
2022-08-20T20:24:30.763Z,19.60
2022-08-20T20:26:58.778Z,19.60
2022-08-20T20:29:27.289Z,19.60
2022-08-20T20:31:57.919Z,19.70
2022-08-20T20:34:29.974Z,19.70
2022-08-20T20:37:11.626Z,19.80
2022-08-20T20:39:41.051Z,19.90
2022-08-20T20:42:11.027Z,19.90
2022-08-20T20:44:43.206Z,19.80
2022-08-20T20:47:36.551Z,19.80
2022-08-20T20:50:05.978Z,19.80
2022-08-20T20:52:37.356Z,19.70
2022-08-20T20:55:11.494Z,19.60
2022-08-20T20:57:39.091Z,19.60
2022-08-20T21:00:12.695Z,19.60
2022-08-20T21:02:39.524Z,19.50
2022-08-20T21:05:06.626Z,19.50
2022-08-20T21:07:33.297Z,19.50
2022-08-20T21:09:59.964Z,19.60
2022-08-20T21:12:26.606Z,19.70
2022-08-20T21:14:53.316Z,19.70
2022-08-20T21:17:21.923Z,19.80
2022-08-20T21:19:49.526Z,19.80
2022-08-20T21:22:16.186Z,19.80
2022-08-20T21:24:42.916Z,19.80
2022-08-20T21:27:09.690Z,19.70
2022-08-20T21:29:39.058Z,19.70
2022-08-20T21:32:05.989Z,19.70
2022-08-20T21:34:32.667Z,19.70
2022-08-20T21:36:59.379Z,19.60
2022-08-20T21:39:27.277Z,19.60
2022-08-20T21:41:54.956Z,19.60
2022-08-20T21:44:27.419Z,19.50
2022-08-20T21:46:56.446Z,19.50
2022-08-20T21:49:23.751Z,19.50
2022-08-20T21:51:50.883Z,19.40
2022-08-20T21:54:17.821Z,19.50
2022-08-20T21:56:47.227Z,19.50
2022-08-20T21:59:14.564Z,19.50
2022-08-20T22:01:41.564Z,19.50
2022-08-20T22:04:08.580Z,19.40
2022-08-20T22:06:35.511Z,19.40
2022-08-20T22:09:02.484Z,19.40
2022-08-20T22:11:29.127Z,19.40
2022-08-20T22:13:55.800Z,19.50
2022-08-20T22:16:23.002Z,19.50
2022-08-20T22:18:49.730Z,19.40
2022-08-20T22:21:24.687Z,19.40
2022-08-20T22:23:51.569Z,19.30
2022-08-20T22:26:18.540Z,19.20
2022-08-20T22:28:45.186Z,19.10
2022-08-20T22:31:19.541Z,18.90
2022-08-20T22:33:46.154Z,18.80
2022-08-20T22:36:12.841Z,18.70
2022-08-20T22:38:39.507Z,18.60
2022-08-20T22:41:09.527Z,18.50
2022-08-20T22:43:36.796Z,18.50
2022-08-20T22:46:23.807Z,18.50
2022-08-20T22:48:53.091Z,18.50
2022-08-20T22:51:38.856Z,18.50
2022-08-20T22:54:07.283Z,18.40
2022-08-20T22:56:33.916Z,18.40
2022-08-20T22:59:01.643Z,18.30
2022-08-20T23:01:28.592Z,18.20
2022-08-20T23:03:57.358Z,18.10
2022-08-20T23:06:24.644Z,18.00
2022-08-20T23:08:51.275Z,18.00
2022-08-20T23:11:18.327Z,17.90
2022-08-20T23:13:44.968Z,17.90
2022-08-20T23:16:11.872Z,17.80
2022-08-20T23:18:38.683Z,17.80
2022-08-20T23:21:05.553Z,17.80
2022-08-20T23:23:32.254Z,17.80
2022-08-20T23:25:58.914Z,17.80
2022-08-20T23:28:26.058Z,17.70
2022-08-20T23:30:52.843Z,17.70
2022-08-20T23:33:19.542Z,17.60
2022-08-20T23:35:46.191Z,17.60
2022-08-20T23:38:12.955Z,17.50
2022-08-20T23:40:39.946Z,17.50
2022-08-20T23:43:06.630Z,17.60
2022-08-20T23:45:33.418Z,17.50
2022-08-20T23:48:00.103Z,17.40
2022-08-20T23:50:28.675Z,17.30
2022-08-20T23:52:55.517Z,17.30
2022-08-20T23:55:22.894Z,17.20
2022-08-20T23:57:50.220Z,17.10
